Time;durP1;ratioP1;P1;durP2;ratioP2;P2;SDS_P1;SDS_P2;PMS_P1;PMS_P2;Temp;Humidity;BMP_temperature;BMP_pressure;BME280_temperature;BME280_humidity;BME280_pressure;Samples;Min_cycle;Max_cycle;Signal;HPM_P1;HPM_P2
2022/03/04 00:02:05;;;;;;;18.95;10.55;;;2.20;99.90;;;;;;5093524;28;20032;-61
2022/03/04 00:04:34;;;;;;;17.10;10.27;;;2.20;99.90;;;;;;5093396;28;20078;-60
2022/03/04 00:07:00;;;;;;;19.33;10.80;;;2.20;99.90;;;;;;5093056;28;20044;-60
2022/03/04 00:09:26;;;;;;;18.13;10.68;;;2.20;99.90;;;;;;5093026;28;20063;-61
2022/03/04 00:11:52;;;;;;;19.80;10.57;;;2.10;99.90;;;;;;5092992;28;20064;-61
2022/03/04 00:14:20;;;;;;;21.52;11.25;;;2.10;99.90;;;;;;5093146;28;20095;-61
2022/03/04 00:16:46;;;;;;;15.57;9.93;;;2.10;99.90;;;;;;5093013;28;20036;-61
2022/03/04 00:19:12;;;;;;;18.95;11.10;;;2.10;99.90;;;;;;5092921;28;20278;-61
2022/03/04 00:21:44;;;;;;;18.77;10.77;;;2.10;99.90;;;;;;5091944;28;20126;-61
2022/03/04 00:24:11;;;;;;;18.90;10.45;;;2.10;99.90;;;;;;5093260;28;20063;-61
2022/03/04 00:26:38;;;;;;;17.50;10.77;;;2.10;99.90;;;;;;5093285;28;20040;-61
2022/03/04 00:29:05;;;;;;;17.70;10.65;;;2.00;99.90;;;;;;5092982;28;20036;-61
2022/03/04 00:31:32;;;;;;;17.08;9.85;;;2.00;99.90;;;;;;5093051;28;20036;-61
2022/03/04 00:33:58;;;;;;;19.92;10.80;;;2.00;99.90;;;;;;5092822;28;20043;-60
2022/03/04 00:36:24;;;;;;;16.40;10.65;;;2.00;99.90;;;;;;5092925;28;20096;-60
2022/03/04 00:38:50;;;;;;;20.33;11.07;;;1.90;99.90;;;;;;5092729;28;20122;-61
2022/03/04 00:41:21;;;;;;;18.50;10.27;;;1.90;99.90;;;;;;5092837;28;20086;-61
2022/03/04 00:43:48;;;;;;;19.05;11.13;;;1.90;99.90;;;;;;5092652;28;20036;-61
2022/03/04 00:46:14;;;;;;;23.77;11.73;;;1.80;99.90;;;;;;5092644;28;20145;-61
2022/03/04 00:48:44;;;;;;;19.13;11.27;;;1.90;99.90;;;;;;5092596;28;20040;-61
2022/03/04 00:51:11;;;;;;;23.38;11.73;;;1.90;99.90;;;;;;5092413;28;20051;-61
2022/03/04 00:53:38;;;;;;;21.73;10.70;;;1.80;99.90;;;;;;5092482;28;20032;-61
2022/03/04 00:56:06;;;;;;;21.25;12.48;;;1.80;99.90;;;;;;5092418;28;20043;-61
2022/03/04 00:58:32;;;;;;;22.60;12.25;;;1.80;99.90;;;;;;5092269;28;20043;-61
2022/03/04 01:00:58;;;;;;;25.75;12.15;;;1.80;99.90;;;;;;5092260;28;20032;-61
2022/03/04 01:03:23;;;;;;;20.05;11.98;;;1.70;99.90;;;;;;5092136;28;20485;-60
2022/03/04 01:05:49;;;;;;;24.77;12.32;;;1.70;99.90;;;;;;5091964;28;20032;-60
2022/03/04 01:08:15;;;;;;;20.88;12.52;;;1.70;99.90;;;;;;5092522;28;20036;-61
2022/03/04 01:10:40;;;;;;;20.55;12.60;;;1.70;99.90;;;;;;5092116;28;20039;-61
2022/03/04 01:13:06;;;;;;;25.52;12.93;;;1.70;99.90;;;;;;5092169;28;20043;-61
2022/03/04 01:15:32;;;;;;;24.08;13.10;;;1.70;99.90;;;;;;5092034;28;20440;-61
2022/03/04 01:17:58;;;;;;;26.70;14.30;;;1.60;99.90;;;;;;5091867;28;20046;-61
2022/03/04 01:20:24;;;;;;;22.23;13.35;;;1.60;99.90;;;;;;5091950;28;20051;-61
2022/03/04 01:22:49;;;;;;;22.67;13.68;;;1.50;99.90;;;;;;5092494;28;20361;-61
2022/03/04 01:25:15;;;;;;;21.30;12.63;;;1.50;99.90;;;;;;5092060;28;20044;-61
2022/03/04 01:27:41;;;;;;;21.52;14.30;;;1.50;99.90;;;;;;5091961;28;20187;-60
2022/03/04 01:30:09;;;;;;;21.98;13.55;;;1.50;99.90;;;;;;5091812;28;20131;-61
2022/03/04 01:32:36;;;;;;;23.50;13.20;;;1.40;99.90;;;;;;5091474;28;20044;-61
2022/03/04 01:35:03;;;;;;;24.92;13.55;;;1.50;99.90;;;;;;5091639;28;20462;-61
2022/03/04 01:37:29;;;;;;;24.77;13.77;;;1.40;99.90;;;;;;5091792;28;20051;-60
2022/03/04 01:39:54;;;;;;;24.50;13.75;;;1.40;99.90;;;;;;5091608;28;20036;-61
2022/03/04 01:42:20;;;;;;;24.27;13.73;;;1.40;99.90;;;;;;5091756;28;20040;-60
2022/03/04 01:44:46;;;;;;;21.92;13.75;;;1.30;99.90;;;;;;5091654;28;20046;-60
2022/03/04 01:47:12;;;;;;;27.30;14.40;;;1.30;99.90;;;;;;5091479;28;20120;-61
2022/03/04 01:49:40;;;;;;;26.08;14.65;;;1.30;99.90;;;;;;5091919;28;20122;-61
2022/03/04 01:52:06;;;;;;;26.92;14.32;;;1.20;99.90;;;;;;5091709;28;20043;-61
2022/03/04 01:54:32;;;;;;;26.77;14.55;;;1.10;99.90;;;;;;5090484;28;20047;-61
2022/03/04 01:56:58;;;;;;;29.55;13.95;;;1.10;99.90;;;;;;5091556;28;20170;-61
2022/03/04 01:59:23;;;;;;;22.88;15.00;;;1.10;99.90;;;;;;5091421;28;20467;-61
2022/03/04 02:01:49;;;;;;;25.67;14.73;;;1.00;99.90;;;;;;5091947;28;20481;-61
2022/03/04 02:04:15;;;;;;;27.88;15.15;;;1.00;99.90;;;;;;5091443;28;20474;-61
2022/03/04 02:06:40;;;;;;;27.10;14.52;;;1.00;99.90;;;;;;5091356;28;20072;-61
2022/03/04 02:09:06;;;;;;;26.63;15.82;;;0.90;99.90;;;;;;5091492;28;20032;-61
2022/03/04 02:11:31;;;;;;;24.30;14.23;;;0.90;99.90;;;;;;5091775;28;20555;-61
2022/03/04 02:13:57;;;;;;;27.70;14.20;;;0.90;99.90;;;;;;5091495;28;20040;-61
2022/03/04 02:16:34;;;;;;;22.52;14.35;;;0.80;99.90;;;;;;5092167;28;20048;-61
2022/03/04 02:19:01;;;;;;;25.88;14.05;;;0.80;99.90;;;;;;5091373;28;20040;-61
2022/03/04 02:21:28;;;;;;;27.50;14.70;;;0.80;99.90;;;;;;5091209;28;20044;-61
2022/03/04 02:23:54;;;;;;;29.42;15.13;;;0.80;99.90;;;;;;5091379;28;20027;-61
2022/03/04 02:26:19;;;;;;;28.35;15.85;;;0.80;99.90;;;;;;5091449;28;20363;-61
2022/03/04 02:28:45;;;;;;;27.13;15.77;;;0.70;99.90;;;;;;5091159;28;20117;-61
2022/03/04 02:31:15;;;;;;;31.55;17.17;;;0.70;99.90;;;;;;5091177;28;20397;-61
2022/03/04 02:33:43;;;;;;;27.65;15.10;;;0.70;99.90;;;;;;5091113;28;20489;-61
2022/03/04 02:36:08;;;;;;;25.77;15.43;;;0.70;99.90;;;;;;5091273;28;20474;-61
2022/03/04 02:38:34;;;;;;;29.90;15.60;;;0.70;99.90;;;;;;5091286;28;20097;-61
2022/03/04 02:41:00;;;;;;;26.38;15.52;;;0.70;99.90;;;;;;5090988;28;20446;-61
2022/03/04 02:43:25;;;;;;;31.67;16.35;;;0.60;99.90;;;;;;5090836;28;20118;-61
2022/03/04 02:45:52;;;;;;;32.60;16.88;;;0.60;99.90;;;;;;5094903;28;20478;-61
2022/03/04 02:48:18;;;;;;;29.80;15.77;;;0.60;99.90;;;;;;5094901;28;20107;-61
2022/03/04 02:50:44;;;;;;;29.48;15.90;;;0.60;99.90;;;;;;5093386;28;20148;-60
2022/03/04 02:53:10;;;;;;;26.48;15.45;;;0.60;99.90;;;;;;5094736;28;20050;-61
2022/03/04 02:55:36;;;;;;;26.35;14.40;;;0.60;99.90;;;;;;5094469;28;20547;-61
2022/03/04 02:58:02;;;;;;;24.58;15.05;;;0.50;99.90;;;;;;5094849;28;20069;-61
2022/03/04 03:00:28;;;;;;;31.75;15.38;;;0.50;99.90;;;;;;5094411;28;20040;-61
2022/03/04 03:02:54;;;;;;;27.52;15.25;;;0.50;99.90;;;;;;5093226;28;20050;-61
2022/03/04 03:05:20;;;;;;;28.40;16.13;;;0.50;99.90;;;;;;5093058;28;20130;-61
2022/03/04 03:07:46;;;;;;;28.73;15.70;;;0.50;99.90;;;;;;5094395;28;20036;-61
2022/03/04 03:10:12;;;;;;;29.60;15.60;;;0.40;99.90;;;;;;5094288;28;20040;-61
2022/03/04 03:12:39;;;;;;;28.92;16.27;;;0.40;99.90;;;;;;5094056;28;20084;-61
2022/03/04 03:15:06;;;;;;;30.55;16.10;;;0.40;99.90;;;;;;5094406;28;20047;-61
2022/03/04 03:17:31;;;;;;;31.00;15.30;;;0.30;99.90;;;;;;5094254;28;20394;-61
2022/03/04 03:19:57;;;;;;;32.35;15.93;;;0.40;99.90;;;;;;5093967;28;20036;-61
2022/03/04 03:22:23;;;;;;;28.40;15.43;;;0.40;99.90;;;;;;5094075;28;20119;-61
2022/03/04 03:24:49;;;;;;;30.35;15.80;;;0.30;99.90;;;;;;5094080;28;20616;-61
2022/03/04 03:27:15;;;;;;;28.58;16.00;;;0.30;99.90;;;;;;5093828;28;20147;-61
2022/03/04 03:29:41;;;;;;;26.23;14.88;;;0.30;99.90;;;;;;5094142;28;20111;-61
2022/03/04 03:32:08;;;;;;;25.35;14.70;;;0.30;99.90;;;;;;5094134;28;20517;-61
2022/03/04 03:34:34;;;;;;;25.13;15.27;;;0.30;99.90;;;;;;5093915;28;20043;-61
2022/03/04 03:36:59;;;;;;;25.25;14.95;;;0.30;99.90;;;;;;5092652;28;20386;-61
2022/03/04 03:39:25;;;;;;;25.80;14.38;;;0.20;99.90;;;;;;5093659;28;20036;-61
2022/03/04 03:41:50;;;;;;;28.23;14.80;;;0.20;99.90;;;;;;5093692;28;20071;-61
2022/03/04 03:44:16;;;;;;;27.05;14.95;;;0.20;99.90;;;;;;5093736;28;20042;-61
2022/03/04 03:46:42;;;;;;;29.05;15.50;;;0.20;99.90;;;;;;5093747;28;20116;-61
2022/03/04 03:49:08;;;;;;;29.05;16.27;;;0.20;99.90;;;;;;5093783;28;20040;-61
2022/03/04 03:51:34;;;;;;;31.98;15.82;;;0.20;99.90;;;;;;5093884;28;20035;-61
2022/03/04 03:54:00;;;;;;;30.52;15.70;;;0.20;99.90;;;;;;5093109;28;20097;-61
2022/03/04 03:56:26;;;;;;;24.73;14.18;;;0.10;99.90;;;;;;5093632;28;20033;-61
2022/03/04 03:58:52;;;;;;;32.83;15.93;;;0.10;99.90;;;;;;5093534;28;20386;-61
2022/03/04 04:01:18;;;;;;;29.75;16.27;;;0.10;99.90;;;;;;5093522;28;20083;-61
2022/03/04 04:03:44;;;;;;;30.65;15.77;;;0.00;99.90;;;;;;5093146;28;20478;-61
2022/03/04 04:06:09;;;;;;;29.50;16.35;;;0.00;99.90;;;;;;5093586;28;20040;-61
2022/03/04 04:08:35;;;;;;;31.52;16.48;;;-0.10;99.90;;;;;;5093026;28;20043;-61
2022/03/04 04:11:01;;;;;;;30.70;16.15;;;-0.10;99.90;;;;;;5092843;28;20036;-61
2022/03/04 04:13:27;;;;;;;29.42;16.30;;;-0.10;99.90;;;;;;5093209;28;20100;-61
2022/03/04 04:15:53;;;;;;;30.25;16.80;;;-0.10;99.90;;;;;;5093102;28;20395;-61
2022/03/04 04:18:18;;;;;;;28.88;16.42;;;-0.10;99.90;;;;;;5092793;28;20040;-61
2022/03/04 04:20:44;;;;;;;35.25;17.80;;;-0.20;99.90;;;;;;5092879;28;20052;-61
2022/03/04 04:23:10;;;;;;;32.92;17.70;;;-0.20;99.90;;;;;;5093084;28;20039;-61
2022/03/04 04:25:36;;;;;;;34.58;17.55;;;-0.30;99.90;;;;;;5074080;28;20509;-61
2022/03/04 04:28:02;;;;;;;30.83;17.23;;;-0.30;99.90;;;;;;5093039;28;20032;-61
2022/03/04 04:30:29;;;;;;;33.30;17.05;;;-0.30;99.90;;;;;;5092927;28;20073;-61
2022/03/04 04:32:55;;;;;;;32.17;17.77;;;-0.40;99.90;;;;;;5093022;28;20048;-61
2022/03/04 04:35:21;;;;;;;32.30;17.70;;;-0.40;99.90;;;;;;5092766;28;20100;-62
2022/03/04 04:37:46;;;;;;;36.80;17.83;;;-0.40;99.90;;;;;;5093129;28;20592;-61
2022/03/04 04:40:12;;;;;;;36.83;18.90;;;-0.40;99.90;;;;;;5092286;28;20542;-61
2022/03/04 04:42:38;;;;;;;32.70;17.85;;;-0.40;99.90;;;;;;5092679;28;20042;-61
2022/03/04 04:45:04;;;;;;;34.92;18.55;;;-0.40;99.90;;;;;;5092490;28;20502;-61
2022/03/04 04:47:30;;;;;;;30.42;17.70;;;-0.40;99.90;;;;;;5092550;28;20036;-60
2022/03/04 04:49:55;;;;;;;32.85;18.95;;;-0.40;99.90;;;;;;5092396;28;20051;-61
2022/03/04 04:52:21;;;;;;;39.45;18.58;;;-0.40;99.90;;;;;;5092319;28;20039;-61
2022/03/04 04:54:47;;;;;;;32.85;17.10;;;-0.50;99.90;;;;;;5092246;28;20486;-61
2022/03/04 04:57:12;;;;;;;32.75;18.55;;;-0.30;99.90;;;;;;5092270;28;20123;-61
2022/03/04 04:59:38;;;;;;;37.38;19.30;;;-0.40;99.90;;;;;;5092328;28;20048;-61
2022/03/04 05:02:04;;;;;;;36.28;18.63;;;-0.40;99.90;;;;;;5073994;28;20093;-61
2022/03/04 05:04:29;;;;;;;33.53;18.27;;;-0.40;99.90;;;;;;5091935;28;20040;-61
2022/03/04 05:06:56;;;;;;;34.28;17.98;;;-0.40;99.90;;;;;;5091566;28;20123;-61
2022/03/04 05:09:22;;;;;;;37.75;19.67;;;-0.30;99.90;;;;;;5092024;28;20036;-61
2022/03/04 05:11:47;;;;;;;34.60;18.45;;;-0.40;99.90;;;;;;5092178;28;20044;-61
2022/03/04 05:14:13;;;;;;;38.92;18.90;;;-0.40;99.90;;;;;;5091936;28;20516;-61
2022/03/04 05:16:39;;;;;;;35.03;18.73;;;-0.40;99.90;;;;;;5092343;28;20124;-61
2022/03/04 05:19:05;;;;;;;37.42;18.27;;;-0.30;99.90;;;;;;5092366;28;20040;-61
2022/03/04 05:21:31;;;;;;;34.15;18.83;;;-0.40;99.90;;;;;;5092187;28;20080;-61
2022/03/04 05:23:59;;;;;;;34.45;18.90;;;-0.40;99.90;;;;;;5090654;28;20072;-61
2022/03/04 05:26:27;;;;;;;38.83;19.00;;;-0.30;99.90;;;;;;5092329;28;20036;-61
2022/03/04 05:28:53;;;;;;;37.42;19.23;;;-0.30;99.90;;;;;;5092206;28;20105;-61
2022/03/04 05:31:19;;;;;;;34.50;19.45;;;-0.40;99.90;;;;;;5092055;28;20052;-61
2022/03/04 05:33:44;;;;;;;37.42;19.10;;;-0.30;99.90;;;;;;5091814;28;20044;-61
2022/03/04 05:36:10;;;;;;;37.95;19.58;;;-0.40;99.90;;;;;;5091924;28;20051;-62
2022/03/04 05:38:36;;;;;;;37.05;20.77;;;-0.40;99.90;;;;;;5091676;28;20402;-61
2022/03/04 05:41:02;;;;;;;38.05;20.35;;;-0.40;99.90;;;;;;5092037;28;20036;-61
2022/03/04 05:43:27;;;;;;;35.53;19.10;;;-0.40;99.90;;;;;;5091808;28;20035;-61
2022/03/04 05:45:53;;;;;;;35.80;19.30;;;-0.40;99.90;;;;;;5091753;28;20036;-61
2022/03/04 05:48:19;;;;;;;39.42;19.55;;;-0.40;99.90;;;;;;5091744;28;20050;-61
2022/03/04 05:50:45;;;;;;;34.28;18.63;;;-0.40;99.90;;;;;;5091518;28;20044;-61
2022/03/04 05:53:10;;;;;;;43.22;20.58;;;-0.40;99.90;;;;;;5091771;28;20032;-61
2022/03/04 05:55:36;;;;;;;41.42;20.95;;;-0.50;99.90;;;;;;5091694;28;20039;-61
2022/03/04 05:58:02;;;;;;;35.47;20.98;;;-0.50;99.90;;;;;;5091679;28;20036;-61
2022/03/04 06:00:28;;;;;;;40.30;20.15;;;-0.50;99.90;;;;;;5091540;28;20048;-61
2022/03/04 06:02:54;;;;;;;35.33;19.17;;;-0.40;99.90;;;;;;5091648;28;20047;-61
2022/03/04 06:05:23;;;;;;;43.28;20.77;;;-0.40;99.90;;;;;;5091533;28;20036;-61
2022/03/04 06:07:48;;;;;;;43.03;21.92;;;-0.40;99.90;;;;;;5091278;28;20496;-61
2022/03/04 06:10:14;;;;;;;33.00;20.23;;;-0.40;99.90;;;;;;5091590;28;20044;-61
2022/03/04 06:12:40;;;;;;;38.38;20.25;;;-0.30;99.90;;;;;;5091498;28;20047;-61
2022/03/04 06:15:06;;;;;;;41.33;20.95;;;-0.30;99.90;;;;;;5091601;28;20044;-61
2022/03/04 06:17:32;;;;;;;35.88;19.40;;;-0.30;99.90;;;;;;5092240;28;20040;-62
2022/03/04 06:19:57;;;;;;;42.08;21.27;;;-0.40;99.90;;;;;;5094762;28;20043;-61
2022/03/04 06:22:23;;;;;;;35.20;18.98;;;-0.40;99.90;;;;;;5095567;28;20505;-62
2022/03/04 06:24:49;;;;;;;36.78;19.95;;;-0.40;99.90;;;;;;5095384;28;20080;-62
2022/03/04 06:27:15;;;;;;;36.17;20.40;;;-0.40;99.90;;;;;;5095288;28;20040;-61
2022/03/04 06:29:40;;;;;;;34.65;18.77;;;-0.40;99.90;;;;;;5095106;28;20032;-62
2022/03/04 06:32:07;;;;;;;41.25;20.95;;;-0.40;99.90;;;;;;5095083;28;20490;-62
2022/03/04 06:34:32;;;;;;;35.55;18.75;;;-0.40;99.90;;;;;;5094907;28;20036;-61
2022/03/04 06:36:58;;;;;;;39.42;20.83;;;-0.40;99.90;;;;;;5095151;28;20036;-62
2022/03/04 06:39:24;;;;;;;33.70;19.52;;;-0.30;99.90;;;;;;5093958;28;20492;-61
2022/03/04 06:41:50;;;;;;;35.50;20.98;;;-0.40;99.90;;;;;;5094988;28;20039;-61
2022/03/04 06:44:16;;;;;;;33.38;19.30;;;-0.30;99.90;;;;;;5076230;28;20055;-62
2022/03/04 06:46:41;;;;;;;36.88;19.85;;;-0.40;99.90;;;;;;5094699;28;20051;-62
2022/03/04 06:49:11;;;;;;;37.47;20.40;;;-0.40;99.90;;;;;;5094870;28;20036;-61
2022/03/04 06:51:38;;;;;;;31.67;19.20;;;-0.30;99.90;;;;;;5094885;28;20044;-62
2022/03/04 06:54:04;;;;;;;35.28;19.88;;;-0.30;99.90;;;;;;5094775;28;20035;-61
2022/03/04 06:56:30;;;;;;;37.30;19.42;;;-0.30;99.90;;;;;;5094655;28;20124;-62
2022/03/04 06:58:56;;;;;;;32.53;18.58;;;-0.30;99.90;;;;;;5094766;28;20454;-62
2022/03/04 07:01:22;;;;;;;34.50;19.70;;;-0.30;99.90;;;;;;5094436;28;20119;-62
2022/03/04 07:03:48;;;;;;;37.67;20.48;;;-0.20;99.90;;;;;;5094247;28;20178;-62
2022/03/04 07:06:16;;;;;;;33.25;19.77;;;-0.30;99.90;;;;;;5094518;28;20035;-62
2022/03/04 07:08:42;;;;;;;33.63;18.92;;;-0.30;99.90;;;;;;5092798;28;20359;-62
2022/03/04 07:11:08;;;;;;;34.65;18.83;;;-0.30;99.90;;;;;;5094380;28;20047;-61
2022/03/04 07:13:33;;;;;;;36.65;20.35;;;-0.30;99.90;;;;;;5094155;28;20044;-62
2022/03/04 07:15:59;;;;;;;33.08;19.63;;;-0.30;99.90;;;;;;5094384;28;20578;-61
2022/03/04 07:18:25;;;;;;;35.60;20.65;;;-0.30;99.90;;;;;;5094225;28;20044;-62
2022/03/04 07:20:50;;;;;;;32.03;18.55;;;-0.30;99.90;;;;;;5093950;28;20055;-62
2022/03/04 07:23:16;;;;;;;34.47;20.05;;;-0.30;99.90;;;;;;5094044;28;20394;-61
2022/03/04 07:25:42;;;;;;;38.00;20.08;;;-0.30;99.90;;;;;;5094190;28;20040;-62
2022/03/04 07:28:08;;;;;;;38.78;19.90;;;-0.30;99.90;;;;;;5093788;28;20043;-61
2022/03/04 07:30:34;;;;;;;33.45;19.10;;;-0.30;99.90;;;;;;5093526;28;20079;-62
2022/03/04 07:33:01;;;;;;;34.17;19.90;;;-0.30;99.90;;;;;;5093712;28;20044;-61
2022/03/04 07:35:27;;;;;;;34.80;18.10;;;-0.20;99.90;;;;;;5093835;28;20039;-61
2022/03/04 07:37:52;;;;;;;36.38;20.33;;;-0.20;99.90;;;;;;5093801;28;20097;-61
2022/03/04 07:40:18;;;;;;;36.42;19.52;;;-0.20;99.90;;;;;;5093619;28;20040;-61
2022/03/04 07:42:44;;;;;;;38.92;21.00;;;-0.10;99.90;;;;;;5092508;28;20059;-61
2022/03/04 07:45:11;;;;;;;36.80;19.50;;;-0.20;99.90;;;;;;5091832;28;20052;-61
2022/03/04 07:47:39;;;;;;;32.28;18.98;;;-0.10;99.90;;;;;;5093495;28;20032;-61
2022/03/04 07:50:07;;;;;;;36.10;20.20;;;-0.10;99.90;;;;;;5093602;28;20390;-61
2022/03/04 07:52:33;;;;;;;35.72;20.27;;;-0.20;99.90;;;;;;5093489;28;20089;-61
2022/03/04 07:55:01;;;;;;;33.85;19.08;;;-0.10;99.90;;;;;;5092291;28;20052;-61
2022/03/04 07:57:27;;;;;;;36.55;19.35;;;0.00;99.90;;;;;;5092006;28;20051;-61
2022/03/04 07:59:53;;;;;;;34.10;20.02;;;0.10;99.90;;;;;;5093035;28;20386;-60
2022/03/04 08:02:18;;;;;;;31.92;19.60;;;0.10;99.90;;;;;;5093454;28;20043;-60
2022/03/04 08:04:45;;;;;;;33.38;18.20;;;0.10;99.90;;;;;;5093138;28;20108;-61
2022/03/04 08:07:10;;;;;;;34.85;18.85;;;0.20;99.90;;;;;;5093045;28;20093;-61
2022/03/04 08:09:36;;;;;;;32.63;18.27;;;0.30;99.90;;;;;;5093220;28;20119;-60
2022/03/04 08:12:02;;;;;;;30.95;18.17;;;0.30;99.90;;;;;;5093117;28;20040;-60
2022/03/04 08:14:28;;;;;;;35.83;19.00;;;0.20;99.90;;;;;;5093075;28;20040;-61
2022/03/04 08:16:53;;;;;;;30.92;18.08;;;0.40;99.90;;;;;;5093065;28;20043;-61
2022/03/04 08:19:19;;;;;;;29.52;17.98;;;0.40;99.90;;;;;;5093478;28;20044;-61
2022/03/04 08:21:47;;;;;;;32.42;17.77;;;0.50;99.90;;;;;;5092620;28;20044;-61
2022/03/04 08:24:12;;;;;;;29.48;16.95;;;0.50;99.90;;;;;;5093082;28;20085;-61
2022/03/04 08:26:41;;;;;;;30.95;17.38;;;0.50;99.90;;;;;;5092879;28;20478;-61
2022/03/04 08:29:08;;;;;;;34.20;18.40;;;0.50;99.90;;;;;;5093065;28;20036;-61
2022/03/04 08:31:33;;;;;;;27.88;17.80;;;0.50;99.90;;;;;;5091698;28;20048;-61
2022/03/04 08:33:59;;;;;;;28.65;17.45;;;0.50;99.90;;;;;;5092787;28;20055;-61
2022/03/04 08:36:25;;;;;;;27.83;17.33;;;0.50;99.90;;;;;;5091322;28;20047;-60
2022/03/04 08:38:51;;;;;;;32.00;17.95;;;0.60;99.90;;;;;;5091125;28;20040;-61
2022/03/04 08:41:16;;;;;;;30.85;18.30;;;0.60;99.90;;;;;;5091754;28;20040;-61
2022/03/04 08:43:42;;;;;;;33.17;19.05;;;0.70;99.90;;;;;;5092419;28;20039;-61
2022/03/04 08:46:11;;;;;;;31.02;17.08;;;0.80;99.90;;;;;;5092452;28;20032;-61
2022/03/04 08:48:36;;;;;;;29.38;17.45;;;1.00;99.90;;;;;;5091352;28;20036;-61
2022/03/04 08:51:02;;;;;;;32.20;17.52;;;1.10;99.90;;;;;;5092317;28;20050;-61
2022/03/04 08:53:28;;;;;;;30.20;16.83;;;1.10;99.90;;;;;;5092239;28;20093;-60
2022/03/04 08:55:55;;;;;;;28.20;16.35;;;1.10;99.90;;;;;;5092145;28;20398;-61
2022/03/04 08:58:21;;;;;;;23.70;15.93;;;1.10;99.90;;;;;;5092257;28;20541;-61
2022/03/04 09:00:46;;;;;;;28.13;16.63;;;1.20;99.90;;;;;;5092034;28;20181;-61
2022/03/04 09:03:12;;;;;;;28.10;16.65;;;1.30;99.90;;;;;;5092109;28;20084;-61
2022/03/04 09:05:38;;;;;;;24.95;16.83;;;1.40;99.90;;;;;;5092124;28;20104;-61
2022/03/04 09:08:04;;;;;;;27.38;16.70;;;1.30;99.90;;;;;;5092196;28;20487;-61
2022/03/04 09:10:30;;;;;;;25.75;16.33;;;1.30;99.90;;;;;;5091901;28;20051;-61
2022/03/04 09:12:55;;;;;;;26.17;16.50;;;1.40;99.90;;;;;;5092016;28;20039;-60
2022/03/04 09:15:21;;;;;;;23.50;15.18;;;1.40;99.90;;;;;;5091914;28;20394;-61
2022/03/04 09:17:47;;;;;;;25.55;16.10;;;1.50;99.90;;;;;;5092395;28;20050;-61
2022/03/04 09:20:14;;;;;;;28.83;17.80;;;1.60;99.90;;;;;;5092043;28;20480;-61
2022/03/04 09:22:41;;;;;;;27.30;18.10;;;1.70;99.90;;;;;;5092216;28;20075;-61
2022/03/04 09:25:07;;;;;;;27.25;18.05;;;1.80;99.90;;;;;;5091654;28;20043;-61
2022/03/04 09:27:33;;;;;;;25.95;16.60;;;2.10;99.90;;;;;;5091674;28;20485;-61
2022/03/04 09:29:59;;;;;;;26.63;17.02;;;2.40;99.90;;;;;;5091668;28;20070;-61
2022/03/04 09:32:25;;;;;;;23.33;17.00;;;2.90;99.90;;;;;;5090253;28;20510;-60
2022/03/04 09:34:50;;;;;;;22.25;15.32;;;3.00;99.90;;;;;;5091652;28;20046;-60
2022/03/04 09:37:16;;;;;;;22.73;14.90;;;3.20;99.90;;;;;;5091687;28;20043;-61
2022/03/04 09:39:42;;;;;;;24.45;15.20;;;3.60;99.90;;;;;;5091593;28;20036;-60
2022/03/04 09:42:08;;;;;;;22.63;14.63;;;3.90;99.90;;;;;;5091659;28;20497;-60
2022/03/04 09:44:34;;;;;;;20.30;14.25;;;4.00;99.90;;;;;;5091943;28;20075;-61
2022/03/04 09:47:01;;;;;;;23.77;14.27;;;4.00;99.90;;;;;;5090569;28;20064;-61
2022/03/04 09:49:32;;;;;;;22.98;14.93;;;4.00;99.90;;;;;;5091698;28;20036;-60
2022/03/04 09:51:58;;;;;;;21.05;14.57;;;4.10;99.90;;;;;;5091738;28;20398;-60
2022/03/04 09:54:27;;;;;;;23.23;15.02;;;4.30;99.90;;;;;;5096084;28;20032;-60
2022/03/04 09:56:54;;;;;;;21.92;14.27;;;4.20;99.90;;;;;;5095593;28;20115;-60
2022/03/04 09:59:20;;;;;;;22.85;14.13;;;4.40;99.90;;;;;;5095881;28;20032;-61
2022/03/04 10:01:47;;;;;;;20.02;14.82;;;4.50;99.90;;;;;;5095555;28;20084;-60
2022/03/04 10:04:12;;;;;;;21.23;14.52;;;4.80;99.90;;;;;;5093849;28;20051;-60
2022/03/04 10:06:38;;;;;;;19.48;14.00;;;4.80;99.90;;;;;;5095428;28;20047;-60
2022/03/04 10:09:04;;;;;;;22.45;15.52;;;5.00;99.90;;;;;;5095420;28;20067;-60
2022/03/04 10:11:36;;;;;;;24.55;15.15;;;5.20;99.90;;;;;;5095358;28;20040;-61
2022/03/04 10:14:13;;;;;;;20.88;15.25;;;5.20;99.90;;;;;;5093578;28;20056;-60
2022/03/04 10:16:41;;;;;;;19.73;14.13;;;5.50;99.90;;;;;;5094126;28;20570;-62
2022/03/04 10:19:18;;;;;;;19.95;13.73;;;5.70;99.90;;;;;;5095266;28;20394;-61
2022/03/04 10:22:00;;;;;;;21.23;14.02;;;5.70;99.90;;;;;;5095424;28;20048;-62
2022/03/04 10:24:37;;;;;;;20.42;13.60;;;5.90;99.90;;;;;;5095364;28;20028;-62
2022/03/04 10:27:07;;;;;;;19.15;13.57;;;6.20;99.90;;;;;;5095305;28;20032;-62
2022/03/04 10:29:40;;;;;;;20.20;14.45;;;6.20;99.90;;;;;;5095064;28;20035;-59
2022/03/04 10:32:06;;;;;;;18.55;13.00;;;6.30;99.90;;;;;;5094974;28;20397;-60
2022/03/04 10:34:53;;;;;;;18.63;13.50;;;6.50;99.90;;;;;;5093925;28;20054;-60
2022/03/04 10:37:41;;;;;;;17.58;13.07;;;6.50;99.90;;;;;;5094990;28;20123;-61
2022/03/04 10:40:31;;;;;;;16.40;12.43;;;6.50;99.90;;;;;;5094890;28;20432;-60
2022/03/04 10:43:05;;;;;;;17.90;12.65;;;6.60;99.90;;;;;;5094924;28;20028;-60
2022/03/04 10:45:34;;;;;;;17.02;12.50;;;6.60;99.90;;;;;;5094714;28;20478;-60
2022/03/04 10:48:10;;;;;;;16.77;12.17;;;6.70;99.90;;;;;;5094903;28;20040;-61
2022/03/04 10:50:40;;;;;;;17.60;13.13;;;6.80;99.90;;;;;;5093355;28;20044;-61
2022/03/04 10:53:14;;;;;;;17.38;12.48;;;6.90;99.90;;;;;;5094589;28;20101;-61
2022/03/04 10:55:45;;;;;;;19.33;12.73;;;6.90;99.90;;;;;;5094694;28;20054;-60
2022/03/04 10:58:33;;;;;;;18.83;12.60;;;6.80;99.90;;;;;;5094667;28;20093;-60
2022/03/04 11:01:09;;;;;;;16.60;12.63;;;6.90;99.90;;;;;;5094531;28;20123;-60
2022/03/04 11:03:36;;;;;;;17.17;12.20;;;7.00;99.90;;;;;;5093980;28;20074;-60
2022/03/04 11:06:09;;;;;;;20.05;12.52;;;7.20;99.90;;;;;;5094153;28;20035;-60
2022/03/04 11:08:36;;;;;;;15.18;11.70;;;7.30;99.90;;;;;;5094415;28;20042;-60
2022/03/04 11:11:03;;;;;;;16.50;12.50;;;7.40;99.90;;;;;;5094309;28;20040;-60
2022/03/04 11:13:35;;;;;;;17.90;12.68;;;7.40;99.90;;;;;;5094165;28;20521;-60
2022/03/04 11:16:03;;;;;;;15.93;12.05;;;7.30;99.90;;;;;;5094186;28;20051;-60
2022/03/04 11:18:29;;;;;;;16.52;11.98;;;7.40;99.90;;;;;;5094180;28;20071;-60
2022/03/04 11:20:57;;;;;;;18.38;12.40;;;7.50;99.90;;;;;;5093968;28;20107;-60
2022/03/04 11:23:32;;;;;;;15.50;12.07;;;7.70;99.90;;;;;;5094123;28;20440;-59
2022/03/04 11:26:08;;;;;;;16.60;12.63;;;7.80;99.90;;;;;;5094058;28;20386;-60
2022/03/04 11:28:38;;;;;;;17.48;12.15;;;7.80;99.90;;;;;;5093712;28;20079;-60
2022/03/04 11:31:08;;;;;;;15.88;12.00;;;8.10;99.90;;;;;;5093896;28;20040;-59
2022/03/04 11:33:43;;;;;;;15.02;11.95;;;8.40;99.90;;;;;;5092788;28;20075;-59
2022/03/04 11:36:16;;;;;;;14.98;11.13;;;8.60;99.90;;;;;;5093755;28;20566;-60
2022/03/04 11:38:48;;;;;;;16.33;12.40;;;8.70;99.90;;;;;;5093788;28;20047;-60
2022/03/04 11:41:26;;;;;;;19.35;10.80;;;8.60;99.90;;;;;;5093498;28;20359;-60
2022/03/04 11:43:55;;;;;;;16.05;12.27;;;8.80;99.90;;;;;;5093663;28;20072;-60
2022/03/04 11:46:22;;;;;;;14.30;11.02;;;8.80;99.90;;;;;;5093690;28;20035;-60
2022/03/04 11:49:08;;;;;;;19.48;11.27;;;8.80;99.90;;;;;;5093623;28;20036;-59
2022/03/04 11:51:34;;;;;;;16.08;11.63;;;8.90;99.90;;;;;;5093450;28;20059;-59
2022/03/04 11:54:25;;;;;;;14.90;11.95;;;9.10;99.90;;;;;;5093394;28;20044;-59
2022/03/04 11:56:54;;;;;;;16.98;11.98;;;9.00;99.90;;;;;;5093446;28;20040;-59
2022/03/04 11:59:21;;;;;;;12.98;10.57;;;9.30;99.90;;;;;;5093239;28;20139;-60
2022/03/04 12:01:46;;;;;;;13.18;10.25;;;9.70;99.90;;;;;;5093194;28;20127;-60
2022/03/04 12:04:14;;;;;;;16.63;11.52;;;9.70;99.90;;;;;;5093218;28;20115;-60
2022/03/04 12:06:41;;;;;;;17.23;11.95;;;9.80;99.90;;;;;;5093413;28;20050;-60
2022/03/04 12:09:29;;;;;;;17.73;12.35;;;9.80;99.90;;;;;;5093362;28;20078;-60
2022/03/04 12:12:24;;;;;;;14.70;11.75;;;9.90;99.90;;;;;;5092964;28;20504;-60
2022/03/04 12:15:16;;;;;;;16.10;12.20;;;9.70;99.90;;;;;;5093277;28;20036;-59
2022/03/04 12:18:03;;;;;;;15.70;11.07;;;9.60;99.90;;;;;;4994633;28;20208;-59
2022/03/04 12:20:40;;;;;;;16.48;12.50;;;9.90;99.90;;;;;;5010728;28;20072;-59
2022/03/04 12:23:09;;;;;;;18.50;13.38;;;10.00;99.90;;;;;;5010811;28;20126;-59
2022/03/04 12:25:56;;;;;;;16.73;12.30;;;10.00;99.90;;;;;;5010750;28;20124;-59
2022/03/04 12:28:34;;;;;;;16.42;12.32;;;9.70;99.90;;;;;;5010659;28;20050;-59
2022/03/04 12:31:04;;;;;;;18.40;12.95;;;10.00;99.90;;;;;;5010814;28;20085;-59
2022/03/04 12:33:35;;;;;;;17.38;13.30;;;9.90;99.90;;;;;;4994305;28;20041;-59
2022/03/04 12:36:03;;;;;;;18.13;13.73;;;9.80;99.90;;;;;;5010615;28;20050;-59